createdAt,value
2022-09-30T00:04:17.064Z,9.90
2022-09-30T00:09:17.412Z,10.00
2022-09-30T00:14:18.487Z,10.00
2022-09-30T00:19:16.171Z,9.90
2022-09-30T00:21:46.034Z,9.90
2022-09-30T00:24:14.410Z,10.00
2022-09-30T00:26:42.859Z,10.00
2022-09-30T00:31:40.954Z,10.00
2022-09-30T00:34:11.018Z,10.00
2022-09-30T00:36:44.281Z,10.00
2022-09-30T00:39:16.698Z,10.00
2022-09-30T00:41:46.155Z,10.00
2022-09-30T00:44:51.838Z,10.00
2022-09-30T00:47:52.958Z,9.90
2022-09-30T00:50:37.352Z,10.00
2022-09-30T00:53:13.304Z,10.00
2022-09-30T00:55:52.881Z,9.90
2022-09-30T00:58:29.362Z,10.00
2022-09-30T01:00:59.446Z,10.00
2022-09-30T01:03:29.841Z,10.00
2022-09-30T01:08:29.153Z,9.90
2022-09-30T01:10:58.725Z,9.90
2022-09-30T01:13:31.995Z,9.90
2022-09-30T01:16:33.341Z,9.90
2022-09-30T01:19:25.317Z,9.90
2022-09-30T01:22:20.362Z,9.90
2022-09-30T01:25:51.784Z,9.80
2022-09-30T01:28:49.895Z,9.80
2022-09-30T01:31:45.268Z,9.80
2022-09-30T01:34:26.010Z,9.80
2022-09-30T01:37:08.989Z,9.90
2022-09-30T01:39:51.320Z,9.90
2022-09-30T01:42:27.564Z,9.90
2022-09-30T01:45:03.248Z,9.80
2022-09-30T01:47:38.920Z,9.90
2022-09-30T01:50:17.067Z,9.80
2022-09-30T01:52:54.580Z,9.80
2022-09-30T01:55:31.299Z,9.80
2022-09-30T01:58:06.484Z,9.80
2022-09-30T02:00:40.242Z,9.80
2022-09-30T02:03:17.793Z,9.80
2022-09-30T02:05:55.678Z,9.80
2022-09-30T02:08:30.409Z,9.90
2022-09-30T02:11:00.927Z,9.90
2022-09-30T02:13:36.008Z,9.80
2022-09-30T02:16:13.859Z,9.80
2022-09-30T02:18:48.519Z,9.80
2022-09-30T02:21:22.545Z,9.70
2022-09-30T02:23:59.524Z,9.70
2022-09-30T02:26:34.215Z,9.70
2022-09-30T02:29:07.668Z,9.70
2022-09-30T02:31:41.099Z,9.70
2022-09-30T02:34:15.710Z,9.60
2022-09-30T02:36:51.892Z,9.60
2022-09-30T02:39:35.108Z,9.60
2022-09-30T02:42:08.881Z,9.60
2022-09-30T02:44:38.504Z,9.50
2022-09-30T02:47:15.691Z,9.50
2022-09-30T02:49:51.589Z,9.50
2022-09-30T02:52:30.313Z,9.50
2022-09-30T02:55:15.902Z,9.50
2022-09-30T02:57:58.236Z,9.50
2022-09-30T03:03:00.686Z,9.40
2022-09-30T03:05:30.633Z,9.40
2022-09-30T03:07:59.296Z,9.40
2022-09-30T03:10:28.191Z,9.40
2022-09-30T03:13:16.929Z,9.30
2022-09-30T03:16:13.173Z,9.30
2022-09-30T03:19:10.238Z,9.20
2022-09-30T03:22:00.598Z,9.20
2022-09-30T03:24:59.445Z,9.10
2022-09-30T03:27:34.731Z,9.10
2022-09-30T03:30:07.949Z,9.00
2022-09-30T03:32:57.756Z,8.90
2022-09-30T03:35:33.832Z,8.90
2022-09-30T03:38:13.736Z,8.90
2022-09-30T03:40:53.509Z,8.80
2022-09-30T03:43:30.210Z,8.70
2022-09-30T03:46:07.662Z,8.70
2022-09-30T03:48:39.197Z,8.60
2022-09-30T03:51:09.940Z,8.50
2022-09-30T03:53:46.584Z,8.40
2022-09-30T03:56:15.514Z,8.40
2022-09-30T03:58:45.467Z,8.30
2022-09-30T04:01:21.301Z,8.30
2022-09-30T04:03:51.888Z,8.20
2022-09-30T04:06:22.204Z,8.20
2022-09-30T04:08:53.831Z,8.20
2022-09-30T04:11:22.622Z,8.10
2022-09-30T04:13:50.811Z,8.10
2022-09-30T04:16:19.307Z,8.00
2022-09-30T04:21:17.120Z,7.90
2022-09-30T04:23:45.548Z,8.00
2022-09-30T04:26:17.978Z,7.90
2022-09-30T04:31:17.676Z,7.80
2022-09-30T04:38:43.656Z,7.70
2022-09-30T04:41:18.001Z,7.70
2022-09-30T04:43:48.080Z,7.70
2022-09-30T04:46:17.134Z,7.60
2022-09-30T04:48:46.459Z,7.60
2022-09-30T04:51:16.057Z,7.60
2022-09-30T04:53:44.628Z,7.60
2022-09-30T04:56:13.447Z,7.50
2022-09-30T04:58:43.489Z,7.50
2022-09-30T05:01:13.951Z,7.40
2022-09-30T05:03:43.311Z,7.40
2022-09-30T05:06:12.997Z,7.40
2022-09-30T05:08:45.756Z,7.40
2022-09-30T05:11:18.457Z,7.40
2022-09-30T05:13:49.090Z,7.30
2022-09-30T05:16:18.213Z,7.30
2022-09-30T05:21:19.584Z,3.50
2022-09-30T05:23:48.706Z,7.30
2022-09-30T05:33:45.071Z,7.30
2022-09-30T05:36:16.740Z,7.20
2022-09-30T05:41:15.481Z,7.20
2022-09-30T05:43:47.623Z,7.20
2022-09-30T05:46:18.577Z,7.20
2022-09-30T05:48:47.798Z,7.30
2022-09-30T05:56:13.334Z,7.50
2022-09-30T05:58:42.115Z,7.50
2022-09-30T06:01:14.381Z,7.60
2022-09-30T06:03:45.115Z,7.60
2022-09-30T06:06:13.683Z,7.60
2022-09-30T06:11:14.261Z,7.70
2022-09-30T06:13:44.511Z,7.80
2022-09-30T06:16:13.842Z,7.80
2022-09-30T06:18:43.845Z,7.90
2022-09-30T06:21:15.326Z,7.90
2022-09-30T06:23:44.194Z,8.00
2022-09-30T06:26:14.334Z,8.00
2022-09-30T06:28:43.911Z,8.00
2022-09-30T06:31:12.610Z,8.10
2022-09-30T06:36:12.119Z,8.20
2022-09-30T06:38:40.515Z,8.20
2022-09-30T06:41:09.721Z,8.20
2022-09-30T06:43:39.676Z,8.20
2022-09-30T06:46:20.381Z,8.30
2022-09-30T06:49:08.117Z,8.40
2022-09-30T06:51:40.633Z,8.40
2022-09-30T06:54:09.194Z,8.40
2022-09-30T06:56:37.936Z,8.50
2022-09-30T07:01:35.615Z,8.50
2022-09-30T07:09:12.066Z,8.70
2022-09-30T07:11:40.870Z,8.80
2022-09-30T07:14:10.215Z,8.80
2022-09-30T07:16:38.780Z,9.00
2022-09-30T07:19:10.133Z,9.10
2022-09-30T07:21:39.808Z,9.10
2022-09-30T07:24:09.251Z,9.20
2022-09-30T07:29:09.223Z,9.30
2022-09-30T07:31:37.495Z,9.30
2022-09-30T07:34:08.156Z,9.30
2022-09-30T07:36:38.085Z,9.30
2022-09-30T07:39:11.056Z,9.20
2022-09-30T07:41:41.198Z,9.30
2022-09-30T07:44:13.389Z,9.30
2022-09-30T07:46:43.727Z,9.30
2022-09-30T07:49:15.883Z,9.40
2022-09-30T07:51:45.575Z,9.40
2022-09-30T07:54:18.703Z,9.60
2022-09-30T07:59:38.565Z,9.90
2022-09-30T08:02:08.729Z,10.10
2022-09-30T08:04:41.594Z,10.40
2022-09-30T08:09:43.071Z,10.90
2022-09-30T08:12:11.455Z,11.10
2022-09-30T08:14:39.908Z,11.20
2022-09-30T08:27:05.171Z,12.40
2022-09-30T08:29:53.949Z,12.60
2022-09-30T08:34:50.070Z,13.10
2022-09-30T08:37:18.392Z,13.60
2022-09-30T08:42:37.278Z,14.70
2022-09-30T08:45:20.692Z,15.20
2022-09-30T08:47:58.488Z,15.70
2022-09-30T08:50:35.673Z,16.10
2022-09-30T08:53:09.489Z,16.40
2022-09-30T08:55:44.574Z,16.50
2022-09-30T08:58:29.612Z,16.60
2022-09-30T09:01:03.598Z,16.70
2022-09-30T09:03:34.101Z,16.80
2022-09-30T09:06:21.593Z,16.80
2022-09-30T09:09:06.508Z,17.00
2022-09-30T09:11:54.300Z,17.20
2022-09-30T09:14:40.838Z,17.50
2022-09-30T09:17:24.415Z,17.60
2022-09-30T09:20:03.043Z,18.00
2022-09-30T09:22:32.765Z,18.60
2022-09-30T09:25:02.961Z,18.90
2022-09-30T09:27:42.635Z,19.10
2022-09-30T09:30:14.938Z,19.20
2022-09-30T09:32:43.815Z,19.40
2022-09-30T09:35:17.382Z,19.70
2022-09-30T09:38:15.364Z,19.90
2022-09-30T09:40:58.155Z,19.80
2022-09-30T09:43:43.668Z,19.70
2022-09-30T09:46:22.138Z,19.80
2022-09-30T09:48:51.128Z,20.00
2022-09-30T09:51:30.483Z,20.10
2022-09-30T09:54:02.349Z,20.20
2022-09-30T09:56:33.497Z,20.40
2022-09-30T09:59:13.202Z,20.70
2022-09-30T10:01:45.940Z,20.80
2022-09-30T10:04:19.224Z,20.90
2022-09-30T10:06:54.594Z,21.00
2022-09-30T10:09:30.643Z,21.00
2022-09-30T10:12:29.814Z,21.00
2022-09-30T10:15:03.114Z,20.70
2022-09-30T10:17:35.158Z,20.70
2022-09-30T10:20:09.339Z,20.60
2022-09-30T10:22:38.189Z,20.50
2022-09-30T10:25:22.437Z,20.50
2022-09-30T10:27:58.466Z,20.70
2022-09-30T10:30:41.895Z,21.10
2022-09-30T10:33:30.390Z,21.50
2022-09-30T10:36:11.712Z,21.80
2022-09-30T10:39:01.212Z,22.00
2022-09-30T10:41:35.988Z,22.00
2022-09-30T10:44:07.628Z,22.00
2022-09-30T10:46:40.226Z,22.00
2022-09-30T10:49:32.173Z,22.10
2022-09-30T10:52:02.512Z,22.20
2022-09-30T10:54:50.483Z,22.30
2022-09-30T10:57:23.973Z,22.50
2022-09-30T10:59:56.064Z,22.60
2022-09-30T11:02:31.806Z,22.40
2022-09-30T11:05:18.293Z,22.40
2022-09-30T11:07:54.626Z,22.30
2022-09-30T11:10:46.484Z,22.40
2022-09-30T11:13:24.541Z,22.70
2022-09-30T11:16:04.116Z,23.10
2022-09-30T11:18:42.674Z,23.20
2022-09-30T11:21:19.551Z,23.30
2022-09-30T11:23:54.572Z,23.40
2022-09-30T11:26:41.491Z,23.60
2022-09-30T11:29:44.059Z,23.80
2022-09-30T11:32:38.683Z,23.70
2022-09-30T11:35:29.837Z,23.60
2022-09-30T11:38:19.113Z,23.50
2022-09-30T11:41:00.528Z,23.70
2022-09-30T11:43:42.468Z,23.80
2022-09-30T11:46:38.945Z,23.90
2022-09-30T11:49:32.857Z,24.10
2022-09-30T11:52:12.571Z,24.30
2022-09-30T11:55:01.918Z,24.40
2022-09-30T11:57:38.328Z,24.50
2022-09-30T12:00:15.641Z,24.50
2022-09-30T12:02:47.615Z,24.70
2022-09-30T12:05:24.090Z,24.60
2022-09-30T12:07:59.406Z,24.20
2022-09-30T12:10:33.924Z,24.10
2022-09-30T12:13:10.241Z,24.20
2022-09-30T12:15:40.423Z,24.20
2022-09-30T12:18:15.839Z,24.20
2022-09-30T12:20:50.161Z,24.00
2022-09-30T12:23:23.572Z,24.10
2022-09-30T12:25:57.158Z,24.20
2022-09-30T12:28:51.731Z,24.40
2022-09-30T12:32:02.122Z,24.40
2022-09-30T12:34:53.403Z,24.60
2022-09-30T12:37:39.897Z,24.70
2022-09-30T12:40:53.073Z,24.90
2022-09-30T12:44:08.751Z,25.10
2022-09-30T12:47:00.656Z,25.10
2022-09-30T12:49:33.100Z,24.80
2022-09-30T12:52:08.378Z,24.60
2022-09-30T12:54:41.715Z,24.60
2022-09-30T12:57:11.558Z,24.50
2022-09-30T12:59:52.635Z,24.10
2022-09-30T13:02:35.531Z,23.50
2022-09-30T13:05:52.597Z,22.60
2022-09-30T13:08:38.317Z,22.00
2022-09-30T13:11:08.144Z,22.10
2022-09-30T13:17:19.160Z,22.70
2022-09-30T13:19:51.308Z,23.20
2022-09-30T13:22:58.851Z,23.50
2022-09-30T13:25:27.218Z,23.70
2022-09-30T13:28:31.864Z,23.80
2022-09-30T13:31:25.221Z,23.80
2022-09-30T13:34:12.430Z,23.60
2022-09-30T13:36:58.071Z,23.40
2022-09-30T13:39:30.029Z,23.20
2022-09-30T13:42:15.200Z,23.20
2022-09-30T13:45:00.703Z,23.20
2022-09-30T13:47:37.121Z,23.30
2022-09-30T13:50:16.461Z,23.40
2022-09-30T13:52:51.966Z,23.30
2022-09-30T13:55:26.591Z,23.30
2022-09-30T13:58:16.391Z,23.10
2022-09-30T14:00:56.949Z,23.10
2022-09-30T14:04:04.321Z,22.90
2022-09-30T14:06:45.491Z,22.60
2022-09-30T14:09:36.062Z,22.20
2022-09-30T14:12:26.611Z,22.10
2022-09-30T14:15:33.905Z,22.10
2022-09-30T14:18:35.023Z,22.10
2022-09-30T14:21:26.444Z,22.10
2022-09-30T14:24:00.643Z,21.90
2022-09-30T14:26:59.065Z,21.50
2022-09-30T14:29:39.922Z,20.90
2022-09-30T14:32:18.828Z,20.60
2022-09-30T14:34:47.903Z,20.60
2022-09-30T14:37:23.212Z,20.70
2022-09-30T14:39:51.649Z,20.70
2022-09-30T14:42:30.568Z,20.80
2022-09-30T14:45:04.592Z,20.80
2022-09-30T14:47:38.680Z,20.90
2022-09-30T14:50:12.457Z,20.90
2022-09-30T14:52:46.332Z,20.90
2022-09-30T14:55:27.039Z,20.70
2022-09-30T14:58:23.249Z,20.40
2022-09-30T15:01:04.234Z,20.00
2022-09-30T15:03:37.803Z,19.80
2022-09-30T15:06:17.262Z,19.60
2022-09-30T15:08:46.450Z,19.50
2022-09-30T15:11:21.376Z,19.50
2022-09-30T15:13:58.752Z,19.40
2022-09-30T15:16:29.505Z,19.40
2022-09-30T15:18:59.700Z,19.30
2022-09-30T15:21:32.308Z,19.20
2022-09-30T15:24:02.726Z,19.30
2022-09-30T15:26:34.008Z,19.20
2022-09-30T15:29:05.463Z,19.10
2022-09-30T15:31:33.986Z,18.80
2022-09-30T15:34:08.883Z,18.60
2022-09-30T15:36:38.586Z,18.40
2022-09-30T15:39:18.656Z,18.20
2022-09-30T15:41:48.484Z,18.00
2022-09-30T15:44:36.792Z,18.00
2022-09-30T15:47:07.532Z,17.80
2022-09-30T15:49:49.652Z,17.70
2022-09-30T15:52:29.376Z,17.50
2022-09-30T15:54:58.700Z,17.50
2022-09-30T15:57:47.884Z,17.40
2022-09-30T16:00:39.471Z,17.30
2022-09-30T16:03:25.383Z,17.20
2022-09-30T16:05:54.561Z,17.10
2022-09-30T16:08:27.721Z,17.10
2022-09-30T16:10:59.376Z,17.10
2022-09-30T16:13:30.788Z,17.00
2022-09-30T16:16:02.101Z,17.00
2022-09-30T16:18:34.818Z,16.90
2022-09-30T16:21:06.516Z,16.80
2022-09-30T16:23:39.227Z,16.70
2022-09-30T16:26:24.292Z,16.70
2022-09-30T16:31:25.050Z,16.50
2022-09-30T16:33:53.392Z,16.30
2022-09-30T16:36:21.690Z,16.30
2022-09-30T16:38:49.870Z,16.10
2022-09-30T16:41:18.100Z,16.00
2022-09-30T16:43:46.355Z,15.90
2022-09-30T16:46:14.622Z,15.80
2022-09-30T16:48:44.286Z,15.80
2022-09-30T16:51:16.796Z,15.70
2022-09-30T16:53:47.794Z,15.60
2022-09-30T16:56:18.222Z,15.50
2022-09-30T16:58:47.360Z,15.40
2022-09-30T17:01:21.243Z,15.30
2022-09-30T17:03:53.336Z,15.30
2022-09-30T17:06:27.631Z,15.20
2022-09-30T17:08:56.886Z,15.10
2022-09-30T17:11:27.796Z,15.00
2022-09-30T17:13:56.171Z,15.00
2022-09-30T17:16:25.108Z,14.80
2022-09-30T17:18:55.045Z,14.80
2022-09-30T17:21:26.080Z,14.70
2022-09-30T17:23:55.810Z,14.60
2022-09-30T17:26:24.572Z,14.50
2022-09-30T17:28:55.374Z,14.40
2022-09-30T17:33:56.180Z,14.30
2022-09-30T17:36:25.130Z,14.30
2022-09-30T17:38:55.873Z,14.20
2022-09-30T17:41:41.785Z,14.20
2022-09-30T17:44:10.002Z,14.10
2022-09-30T17:46:43.883Z,14.10
2022-09-30T17:49:16.977Z,14.00
2022-09-30T17:54:15.280Z,13.90
2022-09-30T17:56:44.465Z,13.90
2022-09-30T17:59:12.664Z,13.80
2022-09-30T18:01:41.682Z,13.80
2022-09-30T18:04:09.944Z,13.80
2022-09-30T18:06:39.700Z,13.70
2022-09-30T18:11:42.763Z,13.60
2022-09-30T18:14:12.842Z,13.50
2022-09-30T18:16:41.846Z,13.50
2022-09-30T18:19:10.305Z,13.50
2022-09-30T18:21:40.103Z,13.40
2022-09-30T18:24:08.519Z,13.40
2022-09-30T18:29:06.152Z,13.30
2022-09-30T18:31:36.772Z,13.20
2022-09-30T18:34:07.082Z,13.20
2022-09-30T18:39:07.129Z,13.10
2022-09-30T18:41:37.347Z,13.10
2022-09-30T18:44:07.114Z,13.00
2022-09-30T18:46:35.978Z,13.00
2022-09-30T18:49:04.456Z,13.00
2022-09-30T18:51:32.995Z,12.90
2022-09-30T18:54:02.493Z,12.90
2022-09-30T18:56:33.623Z,12.90
2022-09-30T18:59:05.092Z,12.80
2022-09-30T19:01:34.583Z,12.80
2022-09-30T19:04:04.682Z,12.80
2022-09-30T19:09:01.860Z,12.80
2022-09-30T19:11:32.363Z,12.70
2022-09-30T19:14:02.381Z,12.70
2022-09-30T19:16:35.314Z,12.70
2022-09-30T19:19:08.088Z,12.60
2022-09-30T19:21:36.867Z,10.00
2022-09-30T19:24:06.814Z,12.50
2022-09-30T19:26:38.733Z,12.50
2022-09-30T19:29:09.689Z,12.40
2022-09-30T19:31:38.349Z,12.30
2022-09-30T19:34:07.167Z,12.30
2022-09-30T19:39:20.241Z,12.20
2022-09-30T19:41:50.024Z,12.10
2022-09-30T19:44:19.144Z,12.10
2022-09-30T19:46:50.213Z,12.00
2022-09-30T19:51:52.565Z,11.90
2022-09-30T19:54:33.614Z,11.90
2022-09-30T19:57:07.731Z,11.80
2022-09-30T20:07:02.687Z,11.70
2022-09-30T20:09:31.492Z,11.70
2022-09-30T20:12:00.020Z,11.60
2022-09-30T20:14:58.759Z,11.60
2022-09-30T20:17:28.873Z,11.50
2022-09-30T20:20:14.875Z,11.50
2022-09-30T20:25:12.741Z,11.40
2022-09-30T20:27:42.774Z,11.40
2022-09-30T20:30:13.053Z,11.30
2022-09-30T20:35:11.266Z,11.20
2022-09-30T20:40:10.800Z,11.20
2022-09-30T20:42:40.078Z,11.10
2022-09-30T20:45:10.701Z,11.10
2022-09-30T20:47:43.216Z,11.00
2022-09-30T20:50:12.698Z,11.00
2022-09-30T20:52:40.898Z,10.90
2022-09-30T20:55:09.447Z,10.90
2022-09-30T21:00:07.493Z,10.80
2022-09-30T21:02:35.678Z,10.80
2022-09-30T21:05:07.726Z,10.80
2022-09-30T21:07:36.385Z,10.70
2022-09-30T21:10:04.728Z,10.70
2022-09-30T21:12:33.104Z,10.70
2022-09-30T21:15:01.385Z,10.60
2022-09-30T21:19:59.169Z,10.60
2022-09-30T21:22:29.029Z,10.50
2022-09-30T21:24:57.184Z,10.50
2022-09-30T21:37:21.212Z,10.40
2022-09-30T21:39:50.787Z,10.40
2022-09-30T21:42:19.236Z,10.30
2022-09-30T21:49:44.710Z,10.20
2022-09-30T21:52:12.981Z,10.10
2022-09-30T21:54:41.427Z,10.10
2022-09-30T21:57:11.137Z,10.00
2022-09-30T21:59:42.266Z,10.00
2022-09-30T22:07:09.520Z,9.90
2022-09-30T22:09:39.673Z,9.80
2022-09-30T22:12:08.676Z,9.80
2022-09-30T22:14:38.907Z,9.70
2022-09-30T22:19:38.951Z,9.60
2022-09-30T22:27:07.137Z,9.40
2022-09-30T22:29:36.200Z,9.50
2022-09-30T22:32:05.897Z,9.40
2022-09-30T22:34:51.780Z,9.40
2022-09-30T22:42:35.659Z,9.40
2022-09-30T22:45:04.873Z,9.40
2022-09-30T22:47:35.919Z,9.40
2022-09-30T22:50:04.741Z,9.40
2022-09-30T22:57:30.929Z,9.30
2022-09-30T23:04:58.969Z,9.30
2022-09-30T23:07:27.249Z,9.30
2022-09-30T23:09:56.199Z,9.30
2022-09-30T23:12:24.904Z,9.30
2022-09-30T23:14:53.748Z,9.30
2022-09-30T23:22:20.384Z,9.20
2022-09-30T23:27:17.048Z,9.30
2022-09-30T23:29:45.280Z,9.20
2022-09-30T23:34:42.153Z,9.30
2022-09-30T23:37:10.319Z,9.20
2022-09-30T23:39:40.721Z,9.30
2022-09-30T23:52:19.069Z,9.20
2022-09-30T23:54:48.832Z,9.20
2022-09-30T23:57:17.039Z,9.20
